Time;durP1;ratioP1;P1;durP2;ratioP2;P2;SDS_P1;SDS_P2;PMS_P1;PMS_P2;Temp;Humidity;BMP_temperature;BMP_pressure;BME280_temperature;BME280_humidity;BME280_pressure;Samples;Min_cycle;Max_cycle;Signal;HPM_P1;HPM_P2
2023/01/30 00:00:27;;;;;;;47.78;17.70;;;;;;;-5.62;100.00;96051.09;4952179;28;20044;-70
2023/01/30 00:03:13;;;;;;;44.47;14.95;;;;;;;-5.62;100.00;96049.34;4958224;28;20082;-70
2023/01/30 00:05:38;;;;;;;42.90;14.15;;;;;;;-5.66;100.00;96044.66;4955597;28;20071;-70
2023/01/30 00:08:04;;;;;;;39.40;16.20;;;;;;;-5.68;100.00;96046.59;4951573;28;20090;-70
2023/01/30 00:10:29;;;;;;;44.65;15.98;;;;;;;-5.65;100.00;96038.59;4959609;28;20740;-71
2023/01/30 00:12:55;;;;;;;38.13;14.85;;;;;;;-5.61;100.00;96039.91;4956143;28;20039;-70
2023/01/30 00:15:20;;;;;;;45.10;15.18;;;;;;;-5.64;100.00;96038.44;4954394;28;20491;-70
2023/01/30 00:17:46;;;;;;;34.92;13.70;;;;;;;-5.64;100.00;96012.00;4955331;28;20050;-70
2023/01/30 00:20:11;;;;;;;38.15;14.23;;;;;;;-5.62;100.00;96017.75;4951896;28;20043;-71
2023/01/30 00:22:37;;;;;;;34.22;14.65;;;;;;;-5.65;100.00;96025.78;4954908;28;20050;-70
2023/01/30 00:25:03;;;;;;;54.58;16.80;;;;;;;-5.56;100.00;96019.69;4958609;28;20396;-71
2023/01/30 00:27:29;;;;;;;44.13;15.60;;;;;;;-5.50;100.00;96019.09;4953149;28;20054;-71
2023/01/30 00:29:54;;;;;;;41.58;15.88;;;;;;;-5.52;100.00;96018.44;4960267;28;20042;-71
2023/01/30 00:32:20;;;;;;;40.88;14.52;;;;;;;-5.68;100.00;96018.41;4954103;28;20039;-71
2023/01/30 00:34:45;;;;;;;38.97;14.52;;;;;;;-5.74;100.00;96018.03;4956468;28;20051;-71
2023/01/30 00:37:11;;;;;;;40.63;15.30;;;;;;;-5.83;100.00;96013.84;4957749;28;20035;-70
2023/01/30 00:39:36;;;;;;;42.42;15.35;;;;;;;-5.89;100.00;96004.19;4954877;28;20042;-70
2023/01/30 00:47:30;;;;;;;39.17;14.55;;;;;;;-6.06;100.00;95997.44;4951891;28;20071;-71
2023/01/30 00:49:56;;;;;;;45.72;16.25;;;;;;;-6.07;100.00;95990.72;4952768;28;20075;-70
2023/01/30 00:52:21;;;;;;;34.83;13.85;;;;;;;-6.08;100.00;95983.97;4955688;28;20499;-70
2023/01/30 00:54:47;;;;;;;44.63;14.60;;;;;;;-6.05;100.00;95986.22;4941846;28;20050;-71
2023/01/30 00:57:12;;;;;;;43.28;14.88;;;;;;;-6.10;100.00;95977.25;4958160;28;20039;-70
2023/01/30 00:59:38;;;;;;;41.22;15.00;;;;;;;-6.21;100.00;95969.03;4959777;28;20054;-70
2023/01/30 01:02:03;;;;;;;35.38;14.77;;;;;;;-6.28;100.00;95969.66;4953888;28;20487;-70
2023/01/30 01:04:29;;;;;;;35.90;13.45;;;;;;;-6.20;100.00;95971.44;4963031;28;20521;-70
2023/01/30 01:06:54;;;;;;;38.42;13.45;;;;;;;-6.23;100.00;95966.63;4951804;28;20459;-70
2023/01/30 01:09:20;;;;;;;43.60;15.73;;;;;;;-6.20;100.00;95968.09;4951301;28;20046;-70
2023/01/30 01:11:45;;;;;;;39.60;13.48;;;;;;;-6.31;100.00;95964.00;4958290;28;20126;-70
2023/01/30 01:14:11;;;;;;;35.38;13.02;;;;;;;-6.35;100.00;95952.47;4943307;28;20550;-70
2023/01/30 01:16:37;;;;;;;37.25;12.68;;;;;;;-6.41;100.00;95953.88;4954356;28;20518;-71
2023/01/30 01:19:03;;;;;;;43.38;12.95;;;;;;;-6.45;100.00;95942.31;4947064;28;20035;-71
2023/01/30 01:21:28;;;;;;;36.95;13.48;;;;;;;-6.42;100.00;95930.97;4958359;28;20061;-71
2023/01/30 01:23:57;;;;;;;33.85;12.30;;;;;;;-6.38;100.00;95942.53;4960538;28;20413;-71
2023/01/30 01:26:23;;;;;;;35.53;12.00;;;;;;;-6.55;100.00;95942.44;4961021;28;20047;-70
2023/01/30 01:28:48;;;;;;;34.08;13.52;;;;;;;-6.53;100.00;95940.53;4958641;28;20043;-71
2023/01/30 01:31:15;;;;;;;40.05;13.85;;;;;;;-6.56;100.00;95945.97;4956297;28;20094;-71
2023/01/30 01:33:41;;;;;;;38.63;13.88;;;;;;;-6.57;100.00;95939.22;4957976;28;20070;-71
2023/01/30 01:36:07;;;;;;;37.78;13.10;;;;;;;-6.60;100.00;95943.88;4949149;28;20034;-70
2023/01/30 01:38:33;;;;;;;37.60;13.52;;;;;;;-6.66;100.00;95945.25;4965455;28;20054;-70
2023/01/30 01:41:03;;;;;;;40.72;13.48;;;;;;;-6.75;100.00;95946.97;4956421;28;20499;-71
2023/01/30 01:43:32;;;;;;;39.00;13.40;;;;;;;-6.84;100.00;95943.56;4955419;28;20514;-71
2023/01/30 01:46:07;;;;;;;38.28;12.45;;;;;;;-6.80;100.00;95939.72;4962348;28;20098;-71
2023/01/30 01:48:47;;;;;;;48.03;13.40;;;;;;;-6.79;100.00;95931.09;4957600;28;20057;-71
2023/01/30 01:51:18;;;;;;;33.40;12.77;;;;;;;-6.76;100.00;95934.34;4954527;28;20047;-70
2023/01/30 01:53:52;;;;;;;37.00;13.05;;;;;;;-6.88;100.00;95921.78;4960620;28;20118;-71
2023/01/30 01:56:19;;;;;;;35.33;12.38;;;;;;;-6.97;100.00;95917.53;4955522;28;20106;-70
2023/01/30 01:58:50;;;;;;;35.58;13.10;;;;;;;-6.95;100.00;95915.66;4953401;28;20046;-71
2023/01/30 02:01:16;;;;;;;32.92;12.23;;;;;;;-6.95;100.00;95918.22;4954185;28;20124;-70
2023/01/30 02:03:46;;;;;;;33.88;13.45;;;;;;;-6.93;100.00;95921.41;4956625;28;20051;-70
2023/01/30 02:06:13;;;;;;;32.47;11.98;;;;;;;-6.95;100.00;95918.22;4949682;28;20041;-70
2023/01/30 02:08:44;;;;;;;40.58;13.38;;;;;;;-7.02;100.00;95935.13;4953902;28;20406;-70
2023/01/30 02:11:30;;;;;;;31.38;12.65;;;;;;;-6.95;100.00;95931.00;4955889;28;20047;-70
2023/01/30 02:13:56;;;;;;;36.78;13.15;;;;;;;-7.05;100.00;95930.28;4952943;28;20427;-70
2023/01/30 02:16:22;;;;;;;29.77;12.40;;;;;;;-7.08;100.00;95935.69;4957033;28;20039;-70
2023/01/30 02:18:48;;;;;;;40.17;15.20;;;;;;;-7.16;100.00;95944.91;4962014;28;20530;-70
2023/01/30 02:21:43;;;;;;;35.65;13.00;;;;;;;-7.17;100.00;95948.44;4959591;28;20047;-70
2023/01/30 02:24:19;;;;;;;31.50;12.52;;;;;;;-7.09;100.00;95949.44;4955237;28;20125;-70
2023/01/30 02:27:16;;;;;;;34.00;12.40;;;;;;;-7.18;100.00;95946.81;4962212;28;20050;-71
2023/01/30 02:30:01;;;;;;;33.60;13.88;;;;;;;-7.33;100.00;95938.06;4957832;28;20051;-70
2023/01/30 02:32:33;;;;;;;29.42;11.52;;;;;;;-7.27;100.00;95945.13;4956694;28;20047;-70
2023/01/30 02:35:24;;;;;;;43.88;14.40;;;;;;;-7.36;100.00;95944.25;4952771;28;20141;-70
2023/01/30 02:38:20;;;;;;;34.65;12.73;;;;;;;-7.33;100.00;95928.63;4947774;28;20051;-71
2023/01/30 02:41:08;;;;;;;41.15;14.82;;;;;;;-7.31;100.00;95925.94;4967890;28;20126;-71
2023/01/30 02:44:03;;;;;;;39.33;14.50;;;;;;;-7.28;100.00;95935.88;4923088;28;20059;-71
2023/01/30 02:46:53;;;;;;;26.50;11.77;;;;;;;-7.23;100.00;95938.78;4954011;28;20054;-72
2023/01/30 02:49:31;;;;;;;34.17;12.57;;;;;;;-7.24;100.00;95942.31;4955396;28;20297;-71
2023/01/30 02:51:59;;;;;;;33.38;12.27;;;;;;;-7.11;100.00;95951.34;4952914;28;20562;-71
2023/01/30 02:54:25;;;;;;;32.40;12.80;;;;;;;-7.32;100.00;95955.00;4954373;28;20043;-72
2023/01/30 02:56:53;;;;;;;32.22;12.20;;;;;;;-7.45;100.00;95954.59;4958901;28;20101;-72
2023/01/30 02:59:25;;;;;;;38.30;13.75;;;;;;;-7.49;100.00;95952.28;4959221;28;20530;-71
2023/01/30 03:02:04;;;;;;;31.55;12.95;;;;;;;-7.49;100.00;95952.28;4956392;28;20629;-70
2023/01/30 03:04:47;;;;;;;32.45;13.00;;;;;;;-7.47;100.00;95956.47;4956591;28;20070;-70
2023/01/30 03:07:42;;;;;;;31.88;10.82;;;;;;;-7.32;100.00;95965.25;4948189;28;20039;-70
2023/01/30 03:10:15;;;;;;;37.40;13.95;;;;;;;-7.44;100.00;95966.41;4947295;28;20051;-70
2023/01/30 03:13:18;;;;;;;35.63;11.63;;;;;;;-7.44;100.00;95971.50;4953779;28;20047;-70
2023/01/30 03:15:52;;;;;;;38.45;13.50;;;;;;;-7.63;100.00;95968.13;4953057;28;20058;-70
2023/01/30 03:18:19;;;;;;;33.60;12.00;;;;;;;-7.61;100.00;95961.13;4944572;28;20039;-70
2023/01/30 03:20:45;;;;;;;30.25;11.85;;;;;;;-7.53;100.00;95966.34;4959659;28;20260;-70
2023/01/30 03:23:11;;;;;;;35.33;12.32;;;;;;;-7.54;100.00;95959.63;4953030;28;20466;-70
2023/01/30 03:25:40;;;;;;;38.58;12.75;;;;;;;-7.53;100.00;95948.44;4953200;28;20095;-70
2023/01/30 03:28:08;;;;;;;43.65;14.50;;;;;;;-7.41;100.00;95940.53;4952899;28;20458;-70
2023/01/30 03:30:34;;;;;;;33.67;12.18;;;;;;;-7.38;100.00;95930.03;4955695;28;20114;-70
2023/01/30 03:32:59;;;;;;;38.42;13.57;;;;;;;-7.26;100.00;95922.94;4955582;28;20514;-71
2023/01/30 03:35:25;;;;;;;40.67;14.75;;;;;;;-7.04;100.00;95926.75;4952085;28;20785;-71
2023/01/30 03:37:51;;;;;;;44.63;14.13;;;;;;;-6.93;100.00;95939.31;4952695;28;20047;-70
2023/01/30 03:40:17;;;;;;;37.42;14.43;;;;;;;-6.76;100.00;95934.34;4956482;28;20494;-73
2023/01/30 03:42:42;;;;;;;32.05;13.10;;;;;;;-6.76;100.00;95929.22;4952010;28;20050;-72
2023/01/30 03:45:09;;;;;;;40.95;15.00;;;;;;;-6.68;100.00;95924.13;4952489;28;20121;-71
2023/01/30 03:47:35;;;;;;;32.33;12.93;;;;;;;-6.56;100.00;95912.69;4952262;28;20043;-72
2023/01/30 03:50:01;;;;;;;39.75;13.80;;;;;;;-6.52;100.00;95921.66;4953853;28;20517;-71
2023/01/30 03:52:26;;;;;;;33.15;13.73;;;;;;;-6.56;100.00;95910.13;4961362;28;20035;-71
2023/01/30 03:54:52;;;;;;;33.70;12.57;;;;;;;-6.59;100.00;95913.00;4952638;28;20122;-71
2023/01/30 03:57:18;;;;;;;32.10;12.80;;;;;;;-6.46;100.00;95912.56;4956798;28;20454;-72
2023/01/30 03:59:43;;;;;;;47.90;15.07;;;;;;;-6.56;100.00;95902.44;4952002;28;20067;-71
2023/01/30 04:02:09;;;;;;;40.72;15.27;;;;;;;-6.49;100.00;95900.88;4958600;28;20039;-72
2023/01/30 04:04:35;;;;;;;32.83;13.63;;;;;;;-6.38;100.00;95907.47;4952517;28;20035;-71
2023/01/30 04:07:00;;;;;;;32.90;12.88;;;;;;;-6.26;100.00;95902.88;4952199;28;20047;-71
2023/01/30 04:09:26;;;;;;;41.35;14.30;;;;;;;-6.17;100.00;95888.34;4952455;28;20136;-72
2023/01/30 04:11:52;;;;;;;36.00;14.00;;;;;;;-6.21;100.00;95892.97;4958097;28;20105;-71
2023/01/30 04:14:18;;;;;;;36.30;12.85;;;;;;;-6.14;100.00;95888.81;4957293;28;20038;-71
2023/01/30 04:16:44;;;;;;;40.72;14.95;;;;;;;-6.11;100.00;95903.88;4951839;28;20050;-71
2023/01/30 04:19:09;;;;;;;37.97;14.70;;;;;;;-5.98;100.00;95923.16;4952278;28;20094;-72
2023/01/30 04:21:35;;;;;;;43.90;14.18;;;;;;;-5.89;100.00;95926.50;4953837;28;20043;-72
2023/01/30 04:24:00;;;;;;;38.63;13.88;;;;;;;-5.64;100.00;95914.56;4950713;28;20091;-72
2023/01/30 04:26:26;;;;;;;36.90;12.82;;;;;;;-5.42;100.00;95910.56;4951842;28;20034;-72
2023/01/30 04:28:51;;;;;;;41.78;14.93;;;;;;;-5.27;100.00;95916.69;4953564;28;20050;-71
2023/01/30 04:31:17;;;;;;;40.97;14.05;;;;;;;-5.15;100.00;95908.66;4957683;28;20498;-71
2023/01/30 04:33:43;;;;;;;43.15;15.18;;;;;;;-5.05;100.00;95904.97;4960381;28;20089;-72
2023/01/30 04:36:09;;;;;;;38.88;15.73;;;;;;;-5.00;100.00;95911.38;4953113;28;20785;-71
2023/01/30 04:38:35;;;;;;;37.72;14.45;;;;;;;-4.94;100.00;95908.16;4951988;28;20110;-71
2023/01/30 04:41:01;;;;;;;41.60;16.48;;;;;;;-4.84;100.00;95919.06;4955470;28;20045;-71
2023/01/30 04:43:28;;;;;;;50.45;16.88;;;;;;;-4.76;100.00;95908.75;4956693;28;20047;-70
2023/01/30 04:45:54;;;;;;;30.50;14.43;;;;;;;-4.74;100.00;95912.00;4951367;28;20762;-71
2023/01/30 04:48:21;;;;;;;38.90;15.38;;;;;;;-4.68;100.00;95904.59;4953637;28;20043;-70
2023/01/30 04:50:48;;;;;;;39.42;14.50;;;;;;;-4.68;100.00;95894.31;4953267;28;20051;-71
2023/01/30 04:53:15;;;;;;;36.92;14.40;;;;;;;-4.68;100.00;95876.34;4949372;28;20174;-71
2023/01/30 04:55:40;;;;;;;42.65;15.50;;;;;;;-4.78;100.00;95863.69;4953329;28;20671;-71
2023/01/30 04:58:06;;;;;;;37.72;14.55;;;;;;;-4.76;100.00;95859.97;4952163;28;20114;-70
2023/01/30 05:00:32;;;;;;;41.92;14.10;;;;;;;-4.78;100.00;95872.19;4951258;28;20069;-71
2023/01/30 05:02:57;;;;;;;36.13;13.95;;;;;;;-4.74;100.00;95865.78;4958174;28;20049;-71
2023/01/30 05:05:24;;;;;;;36.17;12.57;;;;;;;-4.75;100.00;95879.56;4955435;28;20043;-71
2023/01/30 05:07:49;;;;;;;44.65;15.68;;;;;;;-4.71;100.00;95874.91;4951101;28;20050;-71
2023/01/30 05:10:15;;;;;;;45.05;16.25;;;;;;;-4.75;100.00;95874.44;4954428;28;20039;-71
2023/01/30 05:12:41;;;;;;;40.55;14.52;;;;;;;-4.78;100.00;95873.97;4953139;28;20411;-71
2023/01/30 05:15:07;;;;;;;38.83;13.80;;;;;;;-4.79;100.00;95878.28;4952450;28;20039;-71
2023/01/30 05:17:34;;;;;;;35.45;13.95;;;;;;;-4.78;100.00;95869.63;4951715;28;20046;-71
2023/01/30 05:19:59;;;;;;;42.92;15.38;;;;;;;-4.84;100.00;95849.75;4955331;28;20037;-71
2023/01/30 05:22:25;;;;;;;38.25;13.60;;;;;;;-4.91;100.00;95839.31;4939975;28;20039;-71
2023/01/30 05:24:50;;;;;;;35.10;12.75;;;;;;;-4.91;100.00;95823.91;4958717;28;20043;-71
2023/01/30 05:27:16;;;;;;;37.40;14.57;;;;;;;-4.80;100.00;95830.47;4951502;28;20418;-71
2023/01/30 05:29:42;;;;;;;40.95;14.80;;;;;;;-4.88;100.00;95835.63;4952493;28;20043;-71
2023/01/30 05:32:12;;;;;;;33.35;13.27;;;;;;;-4.78;100.00;95843.94;4955032;28;20057;-70
2023/01/30 05:34:38;;;;;;;36.47;14.27;;;;;;;-4.76;100.00;95841.22;4956000;28;20503;-71
2023/01/30 05:37:03;;;;;;;39.42;14.93;;;;;;;-4.71;100.00;95834.63;4952320;28;20098;-72
2023/01/30 05:39:29;;;;;;;30.33;11.52;;;;;;;-4.61;100.00;95843.88;4960003;28;20034;-70
2023/01/30 05:41:55;;;;;;;30.17;11.82;;;;;;;-4.63;100.00;95845.84;4951560;28;20063;-71
2023/01/30 05:44:20;;;;;;;36.50;13.65;;;;;;;-4.57;100.00;95848.53;4955948;28;20410;-71
2023/01/30 05:46:46;;;;;;;34.55;12.80;;;;;;;-4.60;100.00;95845.50;4963349;28;20438;-71
2023/01/30 05:49:11;;;;;;;35.80;13.02;;;;;;;-4.55;100.00;95838.91;4935438;28;20125;-71
2023/01/30 05:51:37;;;;;;;38.60;14.15;;;;;;;-4.62;100.00;95821.75;4968979;28;20470;-71
2023/01/30 05:54:02;;;;;;;36.40;13.40;;;;;;;-4.75;100.00;95833.34;4955412;28;20036;-70
2023/01/30 05:56:32;;;;;;;44.83;14.00;;;;;;;-4.76;100.00;95834.31;4961434;28;20039;-72
2023/01/30 05:58:58;;;;;;;44.88;13.90;;;;;;;-4.79;100.00;95832.06;4951840;28;20040;-72
2023/01/30 06:01:25;;;;;;;42.30;16.15;;;;;;;-4.87;100.00;95830.34;4952457;28;20419;-71
2023/01/30 06:03:51;;;;;;;48.08;14.40;;;;;;;-4.83;100.00;95833.34;4953709;28;20534;-71
2023/01/30 06:06:17;;;;;;;39.08;14.00;;;;;;;-5.01;100.00;95825.06;4959157;28;20503;-72
2023/01/30 06:08:43;;;;;;;36.60;12.90;;;;;;;-5.09;100.00;95839.50;4953592;28;20040;-71
2023/01/30 06:11:15;;;;;;;37.97;11.95;;;;;;;-5.06;100.00;95834.06;4958268;28;20051;-72
2023/01/30 06:13:42;;;;;;;36.72;13.27;;;;;;;-5.20;100.00;95829.59;4955046;28;20502;-70
2023/01/30 06:16:10;;;;;;;33.38;11.77;;;;;;;-5.11;100.00;95823.50;4961845;28;20038;-72
2023/01/30 06:18:36;;;;;;;41.95;14.35;;;;;;;-5.09;100.00;95826.69;4961672;28;20047;-70
2023/01/30 06:21:03;;;;;;;39.63;13.10;;;;;;;-5.07;100.00;95829.91;4961222;28;20054;-70
2023/01/30 06:23:28;;;;;;;29.15;12.23;;;;;;;-5.07;100.00;95824.75;4955176;28;20127;-70
2023/01/30 06:25:54;;;;;;;36.60;13.88;;;;;;;-5.03;100.00;95830.34;4955750;28;20149;-70
2023/01/30 06:28:22;;;;;;;42.88;14.95;;;;;;;-5.01;100.00;95827.63;4953861;28;20039;-70
2023/01/30 06:30:48;;;;;;;36.20;13.25;;;;;;;-5.07;100.00;95819.63;4955914;28;20467;-70
2023/01/30 06:33:13;;;;;;;31.77;12.80;;;;;;;-4.99;100.00;95826.50;4957162;28;20047;-70
2023/01/30 06:35:42;;;;;;;31.50;12.52;;;;;;;-5.01;100.00;95827.63;4955010;28;20043;-69
2023/01/30 06:38:10;;;;;;;39.03;13.13;;;;;;;-4.98;100.00;95824.75;4957912;28;20039;-70
2023/01/30 06:40:46;;;;;;;33.88;13.45;;;;;;;-4.93;100.00;95819.91;4961117;28;20050;-70
2023/01/30 06:43:12;;;;;;;35.42;12.48;;;;;;;-4.99;100.00;95818.81;4959278;28;20035;-71
2023/01/30 06:45:39;;;;;;;35.97;13.00;;;;;;;-4.97;100.00;95823.78;4954155;28;20039;-72
2023/01/30 06:48:10;;;;;;;30.85;12.35;;;;;;;-4.94;100.00;95824.25;4960147;28;20051;-72
2023/01/30 06:50:36;;;;;;;31.45;12.52;;;;;;;-4.93;100.00;95835.31;4957909;28;20071;-71
2023/01/30 06:53:04;;;;;;;36.15;12.63;;;;;;;-4.91;100.00;95841.09;4953729;28;20110;-71
2023/01/30 06:55:34;;;;;;;31.20;12.70;;;;;;;-4.88;100.00;95839.00;4954835;28;20071;-71
2023/01/30 06:58:02;;;;;;;31.23;12.40;;;;;;;-4.71;100.00;95844.88;4959409;28;20046;-71
2023/01/30 07:00:28;;;;;;;40.90;14.68;;;;;;;-4.67;100.00;95852.25;4960603;28;20042;-68
2023/01/30 07:02:53;;;;;;;37.90;13.80;;;;;;;-4.63;100.00;95856.09;4967627;28;20051;-72
2023/01/30 07:05:19;;;;;;;33.80;13.60;;;;;;;-4.48;100.00;95864.72;4947458;28;20055;-72
2023/01/30 07:07:46;;;;;;;37.13;13.05;;;;;;;-4.40;100.00;95856.97;4957006;28;20127;-71
2023/01/30 07:10:12;;;;;;;35.30;12.65;;;;;;;-4.37;100.00;95854.09;4953315;28;20039;-71
2023/01/30 07:12:37;;;;;;;30.88;11.35;;;;;;;-4.10;100.00;95852.03;4955830;28;20043;-71
2023/01/30 07:15:05;;;;;;;31.23;11.55;;;;;;;-4.02;100.00;95849.41;4955355;28;20800;-70
2023/01/30 07:17:31;;;;;;;29.77;12.63;;;;;;;-3.84;100.00;95843.19;4955149;28;20045;-71
2023/01/30 07:19:57;;;;;;;27.63;10.57;;;;;;;-3.74;100.00;95840.41;4959513;28;20423;-71
2023/01/30 07:22:22;;;;;;;31.40;11.32;;;;;;;-3.64;100.00;95853.03;4959798;28;20046;-74
2023/01/30 07:24:48;;;;;;;30.45;11.50;;;;;;;-3.68;100.00;95855.97;4954057;28;20135;-75
2023/01/30 07:27:14;;;;;;;29.25;11.70;;;;;;;-3.52;100.00;95859.38;4955682;28;20499;-71
2023/01/30 07:29:39;;;;;;;40.70;12.63;;;;;;;-3.40;100.00;95846.94;4958422;28;20047;-73
2023/01/30 07:32:06;;;;;;;36.28;12.73;;;;;;;-3.26;100.00;95847.91;4956405;28;20051;-73
2023/01/30 07:34:32;;;;;;;26.80;10.80;;;;;;;-3.18;100.00;95850.44;4953577;28;20066;-72
2023/01/30 07:36:58;;;;;;;35.35;11.25;;;;;;;-3.21;100.00;95840.47;4959867;28;20046;-71
2023/01/30 07:39:24;;;;;;;33.10;11.32;;;;;;;-3.05;100.00;95840.31;4958719;28;20122;-72
2023/01/30 07:41:49;;;;;;;25.60;10.23;;;;;;;-2.90;100.00;95837.78;4958394;28;20426;-72
2023/01/30 07:44:15;;;;;;;29.73;11.65;;;;;;;-2.88;100.00;95840.97;4965395;28;20042;-71
2023/01/30 07:46:40;;;;;;;28.17;10.57;;;;;;;-2.83;100.00;95848.16;4955217;28;20050;-70
2023/01/30 07:49:08;;;;;;;33.80;12.05;;;;;;;-2.72;100.00;95840.00;4955218;28;20074;-72
2023/01/30 07:51:34;;;;;;;26.85;10.50;;;;;;;-2.59;100.00;95838.59;4962034;28;20043;-73
2023/01/30 07:54:00;;;;;;;32.80;11.60;;;;;;;-2.50;100.00;95827.19;4957010;28;20043;-72
2023/01/30 07:56:26;;;;;;;30.20;11.00;;;;;;;-2.42;100.00;95824.53;4957997;28;20538;-71
2023/01/30 07:58:54;;;;;;;31.35;10.85;;;;;;;-2.39;100.00;95813.84;4940620;28;20047;-72
2023/01/30 08:01:20;;;;;;;24.65;9.48;;;;;;;-2.23;100.00;95806.91;4966010;28;20098;-74
2023/01/30 08:03:47;;;;;;;34.90;11.32;;;;;;;-2.22;100.00;95809.28;4957105;28;20047;-73
2023/01/30 08:06:14;;;;;;;28.67;9.98;;;;;;;-2.16;100.00;95802.63;4964022;28;20047;-74
2023/01/30 08:08:40;;;;;;;21.80;9.88;;;;;;;-2.13;100.00;95791.94;4966925;28;20055;-71
2023/01/30 08:11:05;;;;;;;27.90;10.15;;;;;;;-2.01;100.00;95800.81;4960437;28;20651;-73
2023/01/30 08:13:31;;;;;;;32.75;10.93;;;;;;;-1.95;100.00;95783.78;4937907;28;20039;-72
2023/01/30 08:16:04;;;;;;;29.00;11.73;;;;;;;-1.87;100.00;95791.38;4966456;28;20074;-72
2023/01/30 08:18:32;;;;;;;26.83;9.60;;;;;;;-1.88;100.00;95794.16;4954691;28;20049;-72
2023/01/30 08:21:07;;;;;;;24.05;8.38;;;;;;;-1.81;100.00;95806.16;4965401;28;20685;-72
2023/01/30 08:23:33;;;;;;;26.70;9.75;;;;;;;-1.73;100.00;95797.47;4973252;28;20560;-72
2023/01/30 08:26:01;;;;;;;29.70;10.95;;;;;;;-1.71;100.00;95795.53;4963941;28;20050;-72
2023/01/30 08:28:28;;;;;;;21.35;9.10;;;;;;;-1.61;100.00;95796.00;4973452;28;20043;-73
2023/01/30 08:30:54;;;;;;;28.38;10.93;;;;;;;-1.48;100.00;95789.34;4968904;28;20129;-74
2023/01/30 08:33:21;;;;;;;27.40;10.27;;;;;;;-1.33;100.00;95784.91;4974779;28;20046;-73
2023/01/30 08:35:46;;;;;;;27.27;9.43;;;;;;;-1.33;100.00;95784.91;4962923;28;20162;-74
2023/01/30 08:38:13;;;;;;;25.38;10.63;;;;;;;-1.23;100.00;95780.22;4944994;28;20118;-75
2023/01/30 08:40:38;;;;;;;26.23;9.35;;;;;;;-1.25;100.00;95774.44;4960259;28;20046;-74
2023/01/30 08:43:04;;;;;;;28.15;9.68;;;;;;;-1.25;100.00;95769.28;4963750;28;20063;-74
2023/01/30 08:45:30;;;;;;;30.13;10.07;;;;;;;-1.32;100.00;95763.28;4962498;28;20050;-74
2023/01/30 08:48:00;;;;;;;25.88;9.15;;;;;;;-1.32;100.00;95765.03;4967998;28;20046;-75
2023/01/30 08:50:26;;;;;;;30.70;9.90;;;;;;;-1.27;100.00;95766.06;4958735;28;20046;-74
2023/01/30 08:52:51;;;;;;;24.65;9.43;;;;;;;-1.25;100.00;95774.44;4949969;28;20047;-75
2023/01/30 08:55:18;;;;;;;25.70;9.98;;;;;;;-1.11;100.00;95771.94;4960023;28;20055;-74
2023/01/30 08:57:43;;;;;;;27.50;9.27;;;;;;;-0.96;100.00;95770.06;4950424;28;20058;-74
2023/01/30 09:00:10;;;;;;;23.95;9.60;;;;;;;-0.81;100.00;95763.97;4952096;28;20046;-75
2023/01/30 09:02:36;;;;;;;25.90;8.77;;;;;;;-0.70;100.00;95756.47;4964702;28;20035;-75
2023/01/30 09:05:04;;;;;;;23.35;8.45;;;;;;;-0.60;100.00;95740.59;4953447;28;20115;-76
2023/01/30 09:07:29;;;;;;;24.45;8.00;;;;;;;-0.56;100.00;95752.16;4970536;28;20035;-75
2023/01/30 09:09:55;;;;;;;25.02;9.07;;;;;;;-0.59;100.00;95737.03;4936676;28;20090;-76
2023/01/30 09:12:21;;;;;;;27.00;9.50;;;;;;;-0.54;100.00;95747.59;4961157;28;20047;-77
2023/01/30 09:14:46;;;;;;;24.67;9.15;;;;;;;-0.50;100.00;95770.47;4958299;28;20570;-77
2023/01/30 09:17:12;;;;;;;21.52;9.00;;;;;;;-0.46;100.00;95756.16;4959941;28;20188;-76
2023/01/30 09:19:38;;;;;;;24.65;10.80;;;;;;;-0.39;100.00;95746.63;4940868;28;20517;-76
2023/01/30 09:22:06;;;;;;;28.38;11.00;;;;;;;-0.42;100.00;95736.69;4949339;28;20071;-76
2023/01/30 09:24:32;;;;;;;17.75;7.78;;;;;;;-0.44;100.00;95759.38;4959234;28;20070;-76
2023/01/30 09:26:58;;;;;;;24.42;9.60;;;;;;;-0.42;100.00;95754.78;4945922;28;20043;-78
2023/01/30 09:29:27;;;;;;;20.45;8.10;;;;;;;-0.41;100.00;95748.63;4957986;28;20045;-77
2023/01/30 09:31:55;;;;;;;30.55;9.13;;;;;;;-0.36;100.00;95746.25;4956985;28;20494;-78
2023/01/30 09:34:26;;;;;;;24.45;9.48;;;;;;;-0.39;100.00;95762.16;4968263;28;20080;-78
2023/01/30 09:37:02;;;;;;;22.20;9.93;;;;;;;-0.35;100.00;95763.38;4952501;28;20043;-80
2023/01/30 09:39:28;;;;;;;21.52;8.77;;;;;;;-0.24;100.00;95760.22;4968572;28;20527;-79
2023/01/30 09:42:18;;;;;;;18.77;7.60;;;;;;;-0.11;100.00;95749.09;4968432;28;20065;-79
2023/01/30 09:45:09;;;;;;;14.40;5.45;;;;;;;-0.12;100.00;95746.72;4952833;28;20073;-80
2023/01/30 09:47:48;;;;;;;21.33;8.50;;;;;;;-0.05;100.00;95732.00;4964419;28;20537;-79
2023/01/30 09:50:44;;;;;;;15.85;6.03;;;;;;;0.14;100.00;95736.41;4970178;28;20043;-81
2023/01/30 09:53:23;;;;;;;27.65;8.35;;;;;;;0.33;100.00;95728.84;4962807;28;20038;-79
2023/01/30 09:55:50;;;;;;;15.02;7.03;;;;;;;0.57;100.00;95722.25;4962644;28;20051;-81
2023/01/30 09:58:21;;;;;;;15.52;7.05;;;;;;;0.74;100.00;95709.69;4968856;28;20053;-80
2023/01/30 10:00:50;;;;;;;17.20;6.97;;;;;;;0.90;100.00;95702.50;4968242;28;20574;-83
2023/01/30 10:03:17;;;;;;;19.83;7.60;;;;;;;0.82;100.00;95706.09;4955349;28;20039;-83
2023/01/30 10:05:45;;;;;;;12.65;6.20;;;;;;;0.90;100.00;95712.84;4972441;28;20043;-83
2023/01/30 10:08:24;;;;;;;18.98;7.00;;;;;;;1.07;100.00;95708.03;4976150;28;20088;-83
2023/01/30 10:11:16;;;;;;;18.20;6.70;;;;;;;1.04;100.00;95714.41;4958768;28;20499;-81
2023/01/30 10:14:19;;;;;;;13.85;6.35;;;;;;;0.76;100.00;95723.25;4952319;28;20522;-81
2023/01/30 10:17:11;;;;;;;19.13;7.22;;;;;;;0.80;100.00;95734.78;4967980;28;20050;-79
2023/01/30 10:20:09;;;;;;;17.75;6.95;;;;;;;0.78;100.00;95718.66;4967325;28;20039;-80
2023/01/30 10:22:57;;;;;;;15.05;5.22;;;;;;;2.76;100.00;95697.19;4965040;28;20657;-79
2023/01/30 10:25:41;;;;;;;12.82;4.95;;;;;;;2.46;100.00;95684.88;4961321;28;20557;-82
2023/01/30 10:28:28;;;;;;;14.88;6.18;;;;;;;2.64;100.00;95670.31;4961650;28;20039;-79
2023/01/30 10:31:26;;;;;;;15.02;5.35;;;;;;;3.42;100.00;95655.81;4968308;28;20054;-80
2023/01/30 10:33:58;;;;;;;15.77;5.47;;;;;;;3.19;100.00;95667.72;4936687;28;20351;-79
2023/01/30 10:36:32;;;;;;;12.35;5.30;;;;;;;3.79;97.11;95646.13;4957752;28;20047;-80
2023/01/30 10:39:01;;;;;;;12.35;5.65;;;;;;;3.25;100.00;95640.84;4942057;28;20142;-78
2023/01/30 10:41:36;;;;;;;13.05;5.28;;;;;;;3.01;100.00;95629.53;4958961;28;20039;-79
2023/01/30 10:44:12;;;;;;;10.23;5.03;;;;;;;2.92;100.00;95647.22;4956932;28;20043;-79
2023/01/30 10:47:17;;;;;;;13.52;5.20;;;;;;;3.61;100.00;95644.38;4957992;28;20046;-78
2023/01/30 10:49:54;;;;;;;15.15;5.22;;;;;;;4.66;95.09;95660.34;4962737;28;20039;-79
2023/01/30 10:52:45;;;;;;;10.70;4.78;;;;;;;4.56;94.14;95652.31;4952655;28;20050;-79
2023/01/30 10:55:46;;;;;;;10.27;4.85;;;;;;;4.51;96.06;95646.97;4959393;28;20070;-79
2023/01/30 10:58:30;;;;;;;11.02;4.85;;;;;;;4.48;95.47;95631.81;4880392;29;20077;-79
2023/01/30 11:01:04;;;;;;;11.35;4.80;;;;;;;4.37;100.00;95638.63;4955293;28;20582;-79
2023/01/30 11:03:39;;;;;;;10.88;5.03;;;;;;;4.23;99.67;95635.44;4967950;28;20038;-80
2023/01/30 11:06:17;;;;;;;10.65;5.00;;;;;;;3.49;100.00;95653.94;4964971;28;20039;-77
2023/01/30 11:08:43;;;;;;;12.05;4.95;;;;;;;4.31;100.00;95650.72;4966345;28;20474;-79
2023/01/30 11:11:26;;;;;;;8.40;4.13;;;;;;;4.93;100.00;95638.22;4967459;28;20050;-78
2023/01/30 11:14:07;;;;;;;9.82;4.35;;;;;;;5.21;95.53;95634.84;4955507;28;20050;-78
2023/01/30 11:16:42;;;;;;;8.88;4.13;;;;;;;5.41;91.08;95631.06;4967162;28;20082;-83
2023/01/30 11:19:09;;;;;;;8.30;3.53;;;;;;;4.75;96.30;95615.69;4970800;28;20038;-86
2023/01/30 11:21:35;;;;;;;9.05;4.18;;;;;;;3.59;100.00;95609.97;4981737;28;20081;-79
2023/01/30 11:24:13;;;;;;;10.13;4.65;;;;;;;3.52;100.00;95604.06;4982911;28;20026;-78
2023/01/30 11:26:38;;;;;;;9.13;4.38;;;;;;;3.14;100.00;95606.97;4982689;28;20034;-80
2023/01/30 11:29:14;;;;;;;9.85;4.35;;;;;;;2.93;100.00;95576.03;4985266;28;20023;-82